METAR Data
IDs: Format: Raw Decoded Include TAF

Data at: 1342 UTC 22 Apr 2021

KSET 221254Z AUTO 25005KT 10SM CLR 04/M03 A3024 RMK AO2 SLP241 T00391028
No TAF found for KSET

KSTL 221251Z 26005KT 10SM FEW250 04/M03 A3024 RMK AO2 SLP247 T00391033

KSTL 221120Z 2212/2318 26005KT P6SM SKC
  FM222100 20005KT P6SM FEW250
  FM230500 16005KT P6SM VCSH OVC090
  FM230700 16006KT 6SM -SHRA BR OVC028
  FM231300 15012KT P6SM VCSH OVC023